sensor_id;sensor_type;location;lat;lon;timestamp;temperature;humidity
35127;DHT22;21300;52.006;5.798;2023-02-20T00:04:49;7.20;99.90
35127;DHT22;21300;52.006;5.798;2023-02-20T00:07:15;7.20;99.90
35127;DHT22;21300;52.006;5.798;2023-02-20T00:09:40;7.20;99.90
35127;DHT22;21300;52.006;5.798;2023-02-20T00:12:06;7.10;99.90
35127;DHT22;21300;52.006;5.798;2023-02-20T00:14:31;7.10;99.90
35127;DHT22;21300;52.006;5.798;2023-02-20T00:16:57;7.20;99.90
35127;DHT22;21300;52.006;5.798;2023-02-20T00:19:23;7.20;99.90
35127;DHT22;21300;52.006;5.798;2023-02-20T00:21:49;7.10;99.90
35127;DHT22;21300;52.006;5.798;2023-02-20T00:24:17;7.10;99.90
35127;DHT22;21300;52.006;5.798;2023-02-20T00:26:50;7.20;99.90
35127;DHT22;21300;52.006;5.798;2023-02-20T00:29:17;7.10;99.90
35127;DHT22;21300;52.006;5.798;2023-02-20T00:31:48;7.10;99.90
35127;DHT22;21300;52.006;5.798;2023-02-20T00:34:14;7.10;99.90
35127;DHT22;21300;52.006;5.798;2023-02-20T00:36:40;7.10;99.90
35127;DHT22;21300;52.006;5.798;2023-02-20T00:39:05;7.10;99.90
35127;DHT22;21300;52.006;5.798;2023-02-20T00:41:31;7.10;99.90
35127;DHT22;21300;52.006;5.798;2023-02-20T00:43:57;7.10;99.90
35127;DHT22;21300;52.006;5.798;2023-02-20T00:46:22;7.10;99.90
35127;DHT22;21300;52.006;5.798;2023-02-20T00:48:48;7.10;99.90
35127;DHT22;21300;52.006;5.798;2023-02-20T00:51:15;7.10;99.90
35127;DHT22;21300;52.006;5.798;2023-02-20T00:53:41;7.00;99.90
35127;DHT22;21300;52.006;5.798;2023-02-20T00:56:06;7.00;99.90
35127;DHT22;21300;52.006;5.798;2023-02-20T00:58:32;7.10;99.90
35127;DHT22;21300;52.006;5.798;2023-02-20T01:00:57;7.00;99.90
35127;DHT22;21300;52.006;5.798;2023-02-20T01:03:23;7.10;99.90
35127;DHT22;21300;52.006;5.798;2023-02-20T01:05:49;7.10;99.90
35127;DHT22;21300;52.006;5.798;2023-02-20T01:08:14;7.00;99.90
35127;DHT22;21300;52.006;5.798;2023-02-20T01:10:40;7.00;99.90
35127;DHT22;21300;52.006;5.798;2023-02-20T01:13:05;7.10;99.90
35127;DHT22;21300;52.006;5.798;2023-02-20T01:15:31;7.00;99.90
35127;DHT22;21300;52.006;5.798;2023-02-20T01:17:57;7.00;99.90
35127;DHT22;21300;52.006;5.798;2023-02-20T01:20:23;7.00;99.90
35127;DHT22;21300;52.006;5.798;2023-02-20T01:22:49;7.00;99.90
35127;DHT22;21300;52.006;5.798;2023-02-20T01:25:14;7.00;99.90
35127;DHT22;21300;52.006;5.798;2023-02-20T01:27:40;7.00;99.90
35127;DHT22;21300;52.006;5.798;2023-02-20T01:30:06;7.00;99.90
35127;DHT22;21300;52.006;5.798;2023-02-20T01:32:33;7.00;99.90
35127;DHT22;21300;52.006;5.798;2023-02-20T01:34:58;6.90;99.90
35127;DHT22;21300;52.006;5.798;2023-02-20T01:37:24;7.00;99.90
35127;DHT22;21300;52.006;5.798;2023-02-20T01:39:49;7.00;99.90
35127;DHT22;21300;52.006;5.798;2023-02-20T01:42:21;6.90;99.90
35127;DHT22;21300;52.006;5.798;2023-02-20T01:44:48;6.90;99.90
35127;DHT22;21300;52.006;5.798;2023-02-20T01:47:19;7.00;99.90
35127;DHT22;21300;52.006;5.798;2023-02-20T01:49:58;6.90;99.90
35127;DHT22;21300;52.006;5.798;2023-02-20T01:52:30;6.90;99.90
35127;DHT22;21300;52.006;5.798;2023-02-20T01:55:03;6.90;99.90
35127;DHT22;21300;52.006;5.798;2023-02-20T01:57:32;6.90;99.90
35127;DHT22;21300;52.006;5.798;2023-02-20T02:00:08;6.90;99.90
35127;DHT22;21300;52.006;5.798;2023-02-20T02:02:38;6.90;99.90
35127;DHT22;21300;52.006;5.798;2023-02-20T02:05:05;6.90;99.90
35127;DHT22;21300;52.006;5.798;2023-02-20T02:07:31;6.90;99.90
35127;DHT22;21300;52.006;5.798;2023-02-20T02:10:01;6.90;99.90
35127;DHT22;21300;52.006;5.798;2023-02-20T02:12:27;6.90;99.90
35127;DHT22;21300;52.006;5.798;2023-02-20T02:14:53;6.90;99.90
35127;DHT22;21300;52.006;5.798;2023-02-20T02:17:25;6.90;99.90
35127;DHT22;21300;52.006;5.798;2023-02-20T02:22:39;6.90;99.90
35127;DHT22;21300;52.006;5.798;2023-02-20T02:25:35;6.90;99.90
35127;DHT22;21300;52.006;5.798;2023-02-20T02:34:31;6.90;99.90
35127;DHT22;21300;52.006;5.798;2023-02-20T02:39:50;6.80;99.90
35127;DHT22;21300;52.006;5.798;2023-02-20T02:47:48;6.80;99.90
35127;DHT22;21300;52.006;5.798;2023-02-20T02:50:20;6.80;99.90
35127;DHT22;21300;52.006;5.798;2023-02-20T02:52:47;6.80;99.90
35127;DHT22;21300;52.006;5.798;2023-02-20T02:55:18;6.80;99.90
35127;DHT22;21300;52.006;5.798;2023-02-20T02:57:44;6.80;99.90
35127;DHT22;21300;52.006;5.798;2023-02-20T03:00:26;6.70;99.90
35127;DHT22;21300;52.006;5.798;2023-02-20T03:02:58;6.80;99.90
35127;DHT22;21300;52.006;5.798;2023-02-20T03:05:33;6.70;99.90
35127;DHT22;21300;52.006;5.798;2023-02-20T03:08:28;6.70;99.90
35127;DHT22;21300;52.006;5.798;2023-02-20T03:11:03;6.80;99.90
35127;DHT22;21300;52.006;5.798;2023-02-20T03:13:35;6.80;99.90
35127;DHT22;21300;52.006;5.798;2023-02-20T03:16:24;6.80;99.90
35127;DHT22;21300;52.006;5.798;2023-02-20T03:18:51;6.80;99.90
35127;DHT22;21300;52.006;5.798;2023-02-20T03:21:21;6.70;99.90
35127;DHT22;21300;52.006;5.798;2023-02-20T03:23:57;6.70;99.90
35127;DHT22;21300;52.006;5.798;2023-02-20T03:26:30;6.80;99.90
35127;DHT22;21300;52.006;5.798;2023-02-20T03:29:13;6.70;99.90
35127;DHT22;21300;52.006;5.798;2023-02-20T03:31:53;6.70;99.90
35127;DHT22;21300;52.006;5.798;2023-02-20T03:34:40;6.80;99.90
35127;DHT22;21300;52.006;5.798;2023-02-20T03:37:27;6.70;99.90
35127;DHT22;21300;52.006;5.798;2023-02-20T03:40:14;6.70;99.90
35127;DHT22;21300;52.006;5.798;2023-02-20T03:43:02;6.70;99.90
35127;DHT22;21300;52.006;5.798;2023-02-20T03:45:48;6.80;99.90
35127;DHT22;21300;52.006;5.798;2023-02-20T03:48:18;6.70;99.90
35127;DHT22;21300;52.006;5.798;2023-02-20T03:50:45;6.70;99.90
35127;DHT22;21300;52.006;5.798;2023-02-20T03:53:29;6.70;99.90
35127;DHT22;21300;52.006;5.798;2023-02-20T03:55:58;6.70;99.90
35127;DHT22;21300;52.006;5.798;2023-02-20T03:58:26;6.80;99.90
35127;DHT22;21300;52.006;5.798;2023-02-20T04:00:56;6.70;99.90
35127;DHT22;21300;52.006;5.798;2023-02-20T04:03:43;6.70;99.90
35127;DHT22;21300;52.006;5.798;2023-02-20T04:06:10;6.70;99.90
35127;DHT22;21300;52.006;5.798;2023-02-20T04:08:53;6.70;99.90
35127;DHT22;21300;52.006;5.798;2023-02-20T04:11:28;6.70;99.90
35127;DHT22;21300;52.006;5.798;2023-02-20T04:13:56;6.70;99.90
35127;DHT22;21300;52.006;5.798;2023-02-20T04:16:23;6.80;99.90
35127;DHT22;21300;52.006;5.798;2023-02-20T04:18:49;6.80;99.90
35127;DHT22;21300;52.006;5.798;2023-02-20T04:21:28;6.80;99.90
35127;DHT22;21300;52.006;5.798;2023-02-20T04:26:46;6.80;99.90
35127;DHT22;21300;52.006;5.798;2023-02-20T04:29:12;6.80;99.90
35127;DHT22;21300;52.006;5.798;2023-02-20T04:31:38;6.80;99.90
35127;DHT22;21300;52.006;5.798;2023-02-20T04:34:04;6.80;99.90
35127;DHT22;21300;52.006;5.798;2023-02-20T04:36:29;6.80;99.90
35127;DHT22;21300;52.006;5.798;2023-02-20T04:38:55;6.80;99.90
35127;DHT22;21300;52.006;5.798;2023-02-20T04:41:21;6.80;99.90
35127;DHT22;21300;52.006;5.798;2023-02-20T04:43:46;6.80;99.90
35127;DHT22;21300;52.006;5.798;2023-02-20T04:46:12;6.80;99.90
35127;DHT22;21300;52.006;5.798;2023-02-20T04:48:38;6.80;99.90
35127;DHT22;21300;52.006;5.798;2023-02-20T04:51:04;6.80;99.90
35127;DHT22;21300;52.006;5.798;2023-02-20T04:53:30;6.80;99.90
35127;DHT22;21300;52.006;5.798;2023-02-20T04:55:55;6.80;99.90
35127;DHT22;21300;52.006;5.798;2023-02-20T04:58:21;6.80;99.90
35127;DHT22;21300;52.006;5.798;2023-02-20T05:00:46;6.80;99.90
35127;DHT22;21300;52.006;5.798;2023-02-20T05:03:12;6.80;99.90
35127;DHT22;21300;52.006;5.798;2023-02-20T05:05:37;6.80;99.90
35127;DHT22;21300;52.006;5.798;2023-02-20T05:08:05;6.80;99.90
35127;DHT22;21300;52.006;5.798;2023-02-20T05:10:32;6.80;99.90
35127;DHT22;21300;52.006;5.798;2023-02-20T05:12:58;6.80;99.90
35127;DHT22;21300;52.006;5.798;2023-02-20T05:15:25;6.80;99.90
35127;DHT22;21300;52.006;5.798;2023-02-20T05:17:51;6.80;99.90
35127;DHT22;21300;52.006;5.798;2023-02-20T05:20:17;6.80;99.90
35127;DHT22;21300;52.006;5.798;2023-02-20T05:22:47;6.80;99.90
35127;DHT22;21300;52.006;5.798;2023-02-20T05:25:14;6.80;99.90
35127;DHT22;21300;52.006;5.798;2023-02-20T05:27:40;6.80;99.90
35127;DHT22;21300;52.006;5.798;2023-02-20T05:30:07;6.90;99.90
35127;DHT22;21300;52.006;5.798;2023-02-20T05:32:33;6.80;99.90
35127;DHT22;21300;52.006;5.798;2023-02-20T05:34:59;6.80;99.90
35127;DHT22;21300;52.006;5.798;2023-02-20T05:37:26;6.80;99.90
35127;DHT22;21300;52.006;5.798;2023-02-20T05:39:52;6.80;99.90
35127;DHT22;21300;52.006;5.798;2023-02-20T05:42:18;6.80;99.90
35127;DHT22;21300;52.006;5.798;2023-02-20T05:44:46;6.80;99.90
35127;DHT22;21300;52.006;5.798;2023-02-20T05:47:12;6.80;99.90
35127;DHT22;21300;52.006;5.798;2023-02-20T05:49:38;6.90;99.90
35127;DHT22;21300;52.006;5.798;2023-02-20T05:52:04;6.80;99.90
35127;DHT22;21300;52.006;5.798;2023-02-20T05:54:37;6.90;99.90
35127;DHT22;21300;52.006;5.798;2023-02-20T05:57:03;6.80;99.90
35127;DHT22;21300;52.006;5.798;2023-02-20T05:59:29;6.90;99.90
35127;DHT22;21300;52.006;5.798;2023-02-20T06:01:56;6.90;99.90
35127;DHT22;21300;52.006;5.798;2023-02-20T06:04:22;6.90;99.90
35127;DHT22;21300;52.006;5.798;2023-02-20T06:06:47;6.90;99.90
35127;DHT22;21300;52.006;5.798;2023-02-20T06:09:13;6.90;99.90
35127;DHT22;21300;52.006;5.798;2023-02-20T06:11:51;6.90;99.90
35127;DHT22;21300;52.006;5.798;2023-02-20T06:14:18;6.90;99.90
35127;DHT22;21300;52.006;5.798;2023-02-20T06:16:44;6.90;99.90
35127;DHT22;21300;52.006;5.798;2023-02-20T06:19:10;6.90;99.90
35127;DHT22;21300;52.006;5.798;2023-02-20T06:21:36;6.90;99.90
35127;DHT22;21300;52.006;5.798;2023-02-20T06:24:05;6.90;99.90
35127;DHT22;21300;52.006;5.798;2023-02-20T06:26:30;6.90;99.90
35127;DHT22;21300;52.006;5.798;2023-02-20T06:28:56;6.90;99.90
35127;DHT22;21300;52.006;5.798;2023-02-20T06:31:24;6.90;99.90
35127;DHT22;21300;52.006;5.798;2023-02-20T06:33:51;6.90;99.90
35127;DHT22;21300;52.006;5.798;2023-02-20T06:36:23;6.90;99.90
35127;DHT22;21300;52.006;5.798;2023-02-20T06:38:49;6.90;99.90
35127;DHT22;21300;52.006;5.798;2023-02-20T06:41:15;6.90;99.90
35127;DHT22;21300;52.006;5.798;2023-02-20T06:43:40;6.90;99.90
35127;DHT22;21300;52.006;5.798;2023-02-20T06:46:06;7.00;99.90
35127;DHT22;21300;52.006;5.798;2023-02-20T06:48:32;6.90;99.90
35127;DHT22;21300;52.006;5.798;2023-02-20T06:50:57;6.90;99.90
35127;DHT22;21300;52.006;5.798;2023-02-20T06:53:23;6.90;99.90
35127;DHT22;21300;52.006;5.798;2023-02-20T06:55:48;6.90;99.90
35127;DHT22;21300;52.006;5.798;2023-02-20T06:58:14;7.00;99.90
35127;DHT22;21300;52.006;5.798;2023-02-20T07:00:39;7.00;99.90
35127;DHT22;21300;52.006;5.798;2023-02-20T07:03:05;7.00;99.90
35127;DHT22;21300;52.006;5.798;2023-02-20T07:05:30;7.00;99.90
35127;DHT22;21300;52.006;5.798;2023-02-20T07:07:56;7.00;99.90
35127;DHT22;21300;52.006;5.798;2023-02-20T07:10:22;7.00;99.90
35127;DHT22;21300;52.006;5.798;2023-02-20T07:12:47;7.00;99.90
35127;DHT22;21300;52.006;5.798;2023-02-20T07:15:13;7.00;99.90
35127;DHT22;21300;52.006;5.798;2023-02-20T07:17:38;7.00;99.90
35127;DHT22;21300;52.006;5.798;2023-02-20T07:20:05;7.00;99.90
35127;DHT22;21300;52.006;5.798;2023-02-20T07:22:31;7.00;99.90
35127;DHT22;21300;52.006;5.798;2023-02-20T07:24:56;7.00;99.90
35127;DHT22;21300;52.006;5.798;2023-02-20T07:27:22;7.00;99.90
35127;DHT22;21300;52.006;5.798;2023-02-20T07:29:49;7.00;99.90
35127;DHT22;21300;52.006;5.798;2023-02-20T07:32:15;7.00;99.90
35127;DHT22;21300;52.006;5.798;2023-02-20T07:34:47;7.00;99.90
35127;DHT22;21300;52.006;5.798;2023-02-20T07:37:13;7.00;99.90
35127;DHT22;21300;52.006;5.798;2023-02-20T07:39:39;7.00;99.90
35127;DHT22;21300;52.006;5.798;2023-02-20T07:42:05;7.00;99.90
35127;DHT22;21300;52.006;5.798;2023-02-20T07:44:30;7.00;99.90
35127;DHT22;21300;52.006;5.798;2023-02-20T07:46:57;7.10;99.90
35127;DHT22;21300;52.006;5.798;2023-02-20T07:49:22;7.10;99.90
35127;DHT22;21300;52.006;5.798;2023-02-20T07:51:48;7.00;99.90
35127;DHT22;21300;52.006;5.798;2023-02-20T07:54:14;7.10;99.90
35127;DHT22;21300;52.006;5.798;2023-02-20T07:56:40;7.10;99.90
35127;DHT22;21300;52.006;5.798;2023-02-20T07:59:06;7.10;99.90
35127;DHT22;21300;52.006;5.798;2023-02-20T08:01:31;7.10;99.90
35127;DHT22;21300;52.006;5.798;2023-02-20T08:03:57;7.10;99.90
35127;DHT22;21300;52.006;5.798;2023-02-20T08:06:23;7.10;99.90
35127;DHT22;21300;52.006;5.798;2023-02-20T08:08:49;7.10;99.90
35127;DHT22;21300;52.006;5.798;2023-02-20T08:11:17;7.10;99.90
35127;DHT22;21300;52.006;5.798;2023-02-20T08:13:44;7.10;99.90
35127;DHT22;21300;52.006;5.798;2023-02-20T08:16:09;7.10;99.90
35127;DHT22;21300;52.006;5.798;2023-02-20T08:18:35;7.10;99.90
35127;DHT22;21300;52.006;5.798;2023-02-20T08:21:01;7.10;99.90
35127;DHT22;21300;52.006;5.798;2023-02-20T08:23:26;7.10;99.90
35127;DHT22;21300;52.006;5.798;2023-02-20T08:25:52;7.10;99.90
35127;DHT22;21300;52.006;5.798;2023-02-20T08:28:18;7.10;99.90
35127;DHT22;21300;52.006;5.798;2023-02-20T08:30:43;7.10;99.90
35127;DHT22;21300;52.006;5.798;2023-02-20T08:33:09;7.10;99.90
35127;DHT22;21300;52.006;5.798;2023-02-20T08:35:35;7.10;99.90
35127;DHT22;21300;52.006;5.798;2023-02-20T08:38:02;7.20;99.90
35127;DHT22;21300;52.006;5.798;2023-02-20T08:40:28;7.10;99.90
35127;DHT22;21300;52.006;5.798;2023-02-20T08:42:54;7.20;99.90
35127;DHT22;21300;52.006;5.798;2023-02-20T08:45:19;7.20;99.90
35127;DHT22;21300;52.006;5.798;2023-02-20T08:47:45;7.20;99.90
35127;DHT22;21300;52.006;5.798;2023-02-20T08:50:13;7.20;99.90
35127;DHT22;21300;52.006;5.798;2023-02-20T08:52:40;7.20;99.90
35127;DHT22;21300;52.006;5.798;2023-02-20T08:55:06;7.20;99.90
35127;DHT22;21300;52.006;5.798;2023-02-20T08:57:32;7.20;99.90
35127;DHT22;21300;52.006;5.798;2023-02-20T08:59:57;7.20;99.90
35127;DHT22;21300;52.006;5.798;2023-02-20T09:02:24;7.20;99.90
35127;DHT22;21300;52.006;5.798;2023-02-20T09:04:53;7.20;99.90
35127;DHT22;21300;52.006;5.798;2023-02-20T09:07:18;7.30;99.90
35127;DHT22;21300;52.006;5.798;2023-02-20T09:09:44;7.20;99.90
35127;DHT22;21300;52.006;5.798;2023-02-20T09:12:10;7.30;99.90
35127;DHT22;21300;52.006;5.798;2023-02-20T09:14:36;7.30;99.90
35127;DHT22;21300;52.006;5.798;2023-02-20T09:17:02;7.30;99.90
35127;DHT22;21300;52.006;5.798;2023-02-20T09:19:28;7.30;99.90
35127;DHT22;21300;52.006;5.798;2023-02-20T09:21:53;7.30;99.90
35127;DHT22;21300;52.006;5.798;2023-02-20T09:24:19;7.30;99.90
35127;DHT22;21300;52.006;5.798;2023-02-20T09:26:44;7.30;99.90
35127;DHT22;21300;52.006;5.798;2023-02-20T09:29:10;7.30;99.90
35127;DHT22;21300;52.006;5.798;2023-02-20T09:31:36;7.40;99.90
35127;DHT22;21300;52.006;5.798;2023-02-20T09:34:01;7.30;99.90
35127;DHT22;21300;52.006;5.798;2023-02-20T09:36:28;7.30;99.90
35127;DHT22;21300;52.006;5.798;2023-02-20T09:38:54;7.40;99.90
35127;DHT22;21300;52.006;5.798;2023-02-20T09:46:30;7.40;99.90
35127;DHT22;21300;52.006;5.798;2023-02-20T09:49:10;7.40;99.90
35127;DHT22;21300;52.006;5.798;2023-02-20T09:51:40;7.40;99.90
35127;DHT22;21300;52.006;5.798;2023-02-20T09:56:40;7.50;99.90
35127;DHT22;21300;52.006;5.798;2023-02-20T09:59:16;7.50;99.90
35127;DHT22;21300;52.006;5.798;2023-02-20T10:01:58;7.50;99.90
35127;DHT22;21300;52.006;5.798;2023-02-20T10:04:30;7.50;99.90
35127;DHT22;21300;52.006;5.798;2023-02-20T10:07:03;7.50;99.90
35127;DHT22;21300;52.006;5.798;2023-02-20T10:09:33;7.50;99.90
35127;DHT22;21300;52.006;5.798;2023-02-20T10:12:22;7.50;99.90
35127;DHT22;21300;52.006;5.798;2023-02-20T10:14:55;7.50;99.90
35127;DHT22;21300;52.006;5.798;2023-02-20T10:17:41;7.50;99.90
35127;DHT22;21300;52.006;5.798;2023-02-20T10:20:30;7.50;99.90
35127;DHT22;21300;52.006;5.798;2023-02-20T10:25:37;7.60;99.90
35127;DHT22;21300;52.006;5.798;2023-02-20T10:28:05;7.60;99.90
35127;DHT22;21300;52.006;5.798;2023-02-20T10:30:35;7.60;99.90
35127;DHT22;21300;52.006;5.798;2023-02-20T10:33:23;7.60;99.90
35127;DHT22;21300;52.006;5.798;2023-02-20T10:38:57;7.60;99.90
35127;DHT22;21300;52.006;5.798;2023-02-20T10:47:03;7.60;99.90
35127;DHT22;21300;52.006;5.798;2023-02-20T10:49:34;7.60;99.90
35127;DHT22;21300;52.006;5.798;2023-02-20T10:52:06;7.70;99.90
35127;DHT22;21300;52.006;5.798;2023-02-20T10:54:37;7.70;99.90
35127;DHT22;21300;52.006;5.798;2023-02-20T10:57:21;7.70;99.90
35127;DHT22;21300;52.006;5.798;2023-02-20T11:00:15;7.70;99.90
35127;DHT22;21300;52.006;5.798;2023-02-20T11:02:54;7.70;99.90
35127;DHT22;21300;52.006;5.798;2023-02-20T11:05:22;7.70;99.90
35127;DHT22;21300;52.006;5.798;2023-02-20T11:07:49;7.70;99.90
35127;DHT22;21300;52.006;5.798;2023-02-20T11:10:15;7.70;99.90
35127;DHT22;21300;52.006;5.798;2023-02-20T11:12:52;7.70;99.90
35127;DHT22;21300;52.006;5.798;2023-02-20T11:15:23;7.70;99.90
35127;DHT22;21300;52.006;5.798;2023-02-20T11:17:52;7.70;99.90
35127;DHT22;21300;52.006;5.798;2023-02-20T11:23:01;7.70;99.90
35127;DHT22;21300;52.006;5.798;2023-02-20T11:25:32;7.80;99.90
35127;DHT22;21300;52.006;5.798;2023-02-20T11:30:40;7.80;99.90
35127;DHT22;21300;52.006;5.798;2023-02-20T11:35:41;7.80;99.90
35127;DHT22;21300;52.006;5.798;2023-02-20T11:43:36;7.80;99.90
35127;DHT22;21300;52.006;5.798;2023-02-20T11:46:19;7.80;99.90
35127;DHT22;21300;52.006;5.798;2023-02-20T11:49:06;7.80;99.90
35127;DHT22;21300;52.006;5.798;2023-02-20T11:51:34;7.80;99.90
35127;DHT22;21300;52.006;5.798;2023-02-20T11:54:22;7.80;99.90
35127;DHT22;21300;52.006;5.798;2023-02-20T11:59:40;7.80;99.90
35127;DHT22;21300;52.006;5.798;2023-02-20T12:02:26;7.90;99.90
35127;DHT22;21300;52.006;5.798;2023-02-20T12:05:10;7.90;99.90
35127;DHT22;21300;52.006;5.798;2023-02-20T12:12:56;7.90;99.90
35127;DHT22;21300;52.006;5.798;2023-02-20T12:15:24;7.90;99.90
35127;DHT22;21300;52.006;5.798;2023-02-20T12:21:01;7.90;99.90
35127;DHT22;21300;52.006;5.798;2023-02-20T12:23:54;7.90;99.90
35127;DHT22;21300;52.006;5.798;2023-02-20T12:26:56;8.00;99.90
35127;DHT22;21300;52.006;5.798;2023-02-20T12:32:20;7.90;99.90
35127;DHT22;21300;52.006;5.798;2023-02-20T12:42:59;8.00;99.90
35127;DHT22;21300;52.006;5.798;2023-02-20T12:48:30;8.00;99.90
35127;DHT22;21300;52.006;5.798;2023-02-20T12:53:55;8.00;99.90
35127;DHT22;21300;52.006;5.798;2023-02-20T12:56:45;8.00;99.90
35127;DHT22;21300;52.006;5.798;2023-02-20T12:59:44;8.10;99.90
35127;DHT22;21300;52.006;5.798;2023-02-20T13:02:47;8.10;99.90
35127;DHT22;21300;52.006;5.798;2023-02-20T13:05:18;8.10;99.90
35127;DHT22;21300;52.006;5.798;2023-02-20T13:07:54;8.10;99.90
35127;DHT22;21300;52.006;5.798;2023-02-20T13:10:44;8.10;99.90
35127;DHT22;21300;52.006;5.798;2023-02-20T13:13:10;8.10;99.90
35127;DHT22;21300;52.006;5.798;2023-02-20T13:15:55;8.10;99.90
35127;DHT22;21300;52.006;5.798;2023-02-20T13:21:17;8.10;99.90
35127;DHT22;21300;52.006;5.798;2023-02-20T13:23:46;8.10;99.90
35127;DHT22;21300;52.006;5.798;2023-02-20T13:29:26;8.10;99.90
35127;DHT22;21300;52.006;5.798;2023-02-20T13:31:54;8.20;99.90
35127;DHT22;21300;52.006;5.798;2023-02-20T13:34:33;8.10;99.90
35127;DHT22;21300;52.006;5.798;2023-02-20T13:36:59;8.10;99.90
35127;DHT22;21300;52.006;5.798;2023-02-20T13:39:33;8.20;99.90
35127;DHT22;21300;52.006;5.798;2023-02-20T13:42:02;8.20;99.90
35127;DHT22;21300;52.006;5.798;2023-02-20T13:47:04;8.20;99.90
35127;DHT22;21300;52.006;5.798;2023-02-20T13:52:39;8.20;99.90
35127;DHT22;21300;52.006;5.798;2023-02-20T13:57:49;8.20;99.90
35127;DHT22;21300;52.006;5.798;2023-02-20T14:02:50;8.20;99.90
35127;DHT22;21300;52.006;5.798;2023-02-20T14:05:26;8.20;99.90
35127;DHT22;21300;52.006;5.798;2023-02-20T14:07:52;8.20;99.90
35127;DHT22;21300;52.006;5.798;2023-02-20T14:10:34;8.20;99.90
35127;DHT22;21300;52.006;5.798;2023-02-20T14:13:21;8.20;99.90
35127;DHT22;21300;52.006;5.798;2023-02-20T14:15:58;8.30;99.90
35127;DHT22;21300;52.006;5.798;2023-02-20T14:18:32;8.30;99.90
35127;DHT22;21300;52.006;5.798;2023-02-20T14:21:09;8.30;99.90
35127;DHT22;21300;52.006;5.798;2023-02-20T14:23:40;8.30;99.90
35127;DHT22;21300;52.006;5.798;2023-02-20T14:26:29;8.30;99.90
35127;DHT22;21300;52.006;5.798;2023-02-20T14:28:56;8.30;99.90
35127;DHT22;21300;52.006;5.798;2023-02-20T14:31:35;8.30;99.90
35127;DHT22;21300;52.006;5.798;2023-02-20T14:34:09;8.30;99.90
35127;DHT22;21300;52.006;5.798;2023-02-20T14:37:00;8.30;99.90
35127;DHT22;21300;52.006;5.798;2023-02-20T14:41:56;8.30;99.90
35127;DHT22;21300;52.006;5.798;2023-02-20T14:44:23;8.30;99.90
35127;DHT22;21300;52.006;5.798;2023-02-20T14:46:55;8.30;99.90
35127;DHT22;21300;52.006;5.798;2023-02-20T14:49:26;8.30;99.90
35127;DHT22;21300;52.006;5.798;2023-02-20T14:54:38;8.30;99.90
35127;DHT22;21300;52.006;5.798;2023-02-20T14:57:05;8.40;99.90
35127;DHT22;21300;52.006;5.798;2023-02-20T14:59:34;8.30;99.90
35127;DHT22;21300;52.006;5.798;2023-02-20T15:02:23;8.40;99.90
35127;DHT22;21300;52.006;5.798;2023-02-20T15:04:55;8.40;99.90
35127;DHT22;21300;52.006;5.798;2023-02-20T15:07:26;8.40;99.90
35127;DHT22;21300;52.006;5.798;2023-02-20T15:09:55;8.40;99.90
35127;DHT22;21300;52.006;5.798;2023-02-20T15:12:41;8.40;99.90
35127;DHT22;21300;52.006;5.798;2023-02-20T15:15:12;8.40;99.90
35127;DHT22;21300;52.006;5.798;2023-02-20T15:17:43;8.40;99.90
35127;DHT22;21300;52.006;5.798;2023-02-20T15:20:19;8.40;99.90
35127;DHT22;21300;52.006;5.798;2023-02-20T15:23:16;8.40;99.90
35127;DHT22;21300;52.006;5.798;2023-02-20T15:25:45;8.40;99.90
35127;DHT22;21300;52.006;5.798;2023-02-20T15:33:30;8.40;99.90
35127;DHT22;21300;52.006;5.798;2023-02-20T15:35:57;8.40;99.90
35127;DHT22;21300;52.006;5.798;2023-02-20T15:38:28;8.40;99.90
35127;DHT22;21300;52.006;5.798;2023-02-20T15:41:00;8.40;99.90
35127;DHT22;21300;52.006;5.798;2023-02-20T15:43:27;8.40;99.90
35127;DHT22;21300;52.006;5.798;2023-02-20T15:45:53;8.40;99.90
35127;DHT22;21300;52.006;5.798;2023-02-20T15:48:20;8.40;99.90
35127;DHT22;21300;52.006;5.798;2023-02-20T15:50:46;8.40;99.90
35127;DHT22;21300;52.006;5.798;2023-02-20T15:53:32;8.50;99.90
35127;DHT22;21300;52.006;5.798;2023-02-20T15:55:58;8.40;99.90
35127;DHT22;21300;52.006;5.798;2023-02-20T15:58:28;8.40;99.90
35127;DHT22;21300;52.006;5.798;2023-02-20T16:00:55;8.40;99.90
35127;DHT22;21300;52.006;5.798;2023-02-20T16:03:22;8.40;99.90
35127;DHT22;21300;52.006;5.798;2023-02-20T16:05:48;8.40;99.90
35127;DHT22;21300;52.006;5.798;2023-02-20T16:08:14;8.40;99.90
35127;DHT22;21300;52.006;5.798;2023-02-20T16:10:39;8.40;99.90
35127;DHT22;21300;52.006;5.798;2023-02-20T16:13:05;8.40;99.90
35127;DHT22;21300;52.006;5.798;2023-02-20T16:15:33;8.40;99.90
35127;DHT22;21300;52.006;5.798;2023-02-20T16:17:59;8.40;99.90
35127;DHT22;21300;52.006;5.798;2023-02-20T16:20:28;8.40;99.90
35127;DHT22;21300;52.006;5.798;2023-02-20T16:22:54;8.50;99.90
35127;DHT22;21300;52.006;5.798;2023-02-20T16:25:21;8.40;99.90
35127;DHT22;21300;52.006;5.798;2023-02-20T16:27:49;8.40;99.90
35127;DHT22;21300;52.006;5.798;2023-02-20T16:32:49;8.40;99.90
35127;DHT22;21300;52.006;5.798;2023-02-20T16:35:16;8.40;99.90
35127;DHT22;21300;52.006;5.798;2023-02-20T16:37:42;8.40;99.90
35127;DHT22;21300;52.006;5.798;2023-02-20T16:40:07;8.40;99.90
35127;DHT22;21300;52.006;5.798;2023-02-20T16:42:35;8.40;99.90
35127;DHT22;21300;52.006;5.798;2023-02-20T16:45:12;8.40;99.90
35127;DHT22;21300;52.006;5.798;2023-02-20T16:47:37;8.40;99.90
35127;DHT22;21300;52.006;5.798;2023-02-20T16:50:04;8.50;99.90
35127;DHT22;21300;52.006;5.798;2023-02-20T16:52:35;8.40;99.90
35127;DHT22;21300;52.006;5.798;2023-02-20T16:55:02;8.40;99.90
35127;DHT22;21300;52.006;5.798;2023-02-20T16:57:28;8.40;99.90
35127;DHT22;21300;52.006;5.798;2023-02-20T16:59:56;8.40;99.90
35127;DHT22;21300;52.006;5.798;2023-02-20T17:02:28;8.40;99.90
35127;DHT22;21300;52.006;5.798;2023-02-20T17:04:55;8.40;99.90
35127;DHT22;21300;52.006;5.798;2023-02-20T17:07:20;8.40;99.90
35127;DHT22;21300;52.006;5.798;2023-02-20T17:09:46;8.40;99.90
35127;DHT22;21300;52.006;5.798;2023-02-20T17:12:15;8.40;99.90
35127;DHT22;21300;52.006;5.798;2023-02-20T17:14:40;8.40;99.90
35127;DHT22;21300;52.006;5.798;2023-02-20T17:17:06;8.40;99.90
35127;DHT22;21300;52.006;5.798;2023-02-20T17:19:34;8.40;99.90
35127;DHT22;21300;52.006;5.798;2023-02-20T17:22:00;8.40;99.90
35127;DHT22;21300;52.006;5.798;2023-02-20T17:24:26;8.40;99.90
35127;DHT22;21300;52.006;5.798;2023-02-20T17:26:53;8.40;99.90
35127;DHT22;21300;52.006;5.798;2023-02-20T17:29:19;8.40;99.90
35127;DHT22;21300;52.006;5.798;2023-02-20T17:31:44;8.40;99.90
35127;DHT22;21300;52.006;5.798;2023-02-20T17:34:10;8.40;99.90
35127;DHT22;21300;52.006;5.798;2023-02-20T17:36:36;8.40;99.90
35127;DHT22;21300;52.006;5.798;2023-02-20T17:39:01;8.40;99.90
35127;DHT22;21300;52.006;5.798;2023-02-20T17:41:28;8.40;99.90
35127;DHT22;21300;52.006;5.798;2023-02-20T17:43:53;8.40;99.90
35127;DHT22;21300;52.006;5.798;2023-02-20T17:46:19;8.40;99.90
35127;DHT22;21300;52.006;5.798;2023-02-20T17:48:45;8.40;99.90
35127;DHT22;21300;52.006;5.798;2023-02-20T17:51:17;8.30;99.90
35127;DHT22;21300;52.006;5.798;2023-02-20T17:53:43;8.40;99.90
35127;DHT22;21300;52.006;5.798;2023-02-20T17:56:15;8.40;99.90